Riverview, Arkansas
Current Conditions -  °F | °C
As of 6:53 PM on Wednesday 22 Oct 2014 (Local Time) from KRUE Reporting Station
Clear Clear  
Wind Chill: 60°   Ceiling: Unl
Heat Index: 60°   Visibility: 10mi
Dew Point: 53°   Wind: 0mph
Humidity: 78%   Direction: NA
Pressure: 30.14"   Gusts: NA
Location:  35.227°N, 92.6879°W
Report Text: KRUE 222353Z AUTO 00000KT 10SM CLR 16/12 A3014 RMK AO2 SLP203 T01560117 10222 20156 55005
Loading
Personal Weather Stations






























Interactive Weather Map
Tropical Storm Tracking
New forecast layout! Learn more

10-Day Weather Forecast

Advertisements
Track Severe Weather on mobile